Time,TemperatureF,DewpointF,PressureIn,WindDirection,WindDirectionDegrees,WindSpeedMPH,WindSpeedGustMPH,Humidity,HourlyPrecipIn,Conditions,Clouds,dailyrainin,SoftwareType,DateUTC
2014-02-23 00:01:00,29.3,26.0,30.02,ESE,110,0.0,2.0,86,0.00,,,0.00,weatherlink.com 1.10,2014-02-23 05:01:00,
2014-02-23 00:16:00,29.0,26.0,30.02,ESE,110,0.0,1.0,87,0.00,,,0.00,weatherlink.com 1.10,2014-02-23 05:16:00,
2014-02-23 00:31:00,29.2,26.0,30.01,ENE,60,0.0,1.0,86,0.00,,,0.00,weatherlink.com 1.10,2014-02-23 05:31:00,
2014-02-23 00:46:00,28.6,26.0,30.02,ENE,60,0.0,1.0,88,0.00,,,0.00,weatherlink.com 1.10,2014-02-23 05:46:00,
2014-02-23 01:01:00,28.9,26.0,30.01,ENE,63,0.0,1.0,88,0.00,,,0.00,weatherlink.com 1.10,2014-02-23 06:01:00,
2014-02-23 01:16:00,28.7,25.0,30.02,ENE,63,0.0,1.0,87,0.00,,,0.00,weatherlink.com 1.10,2014-02-23 06:16:00,
2014-02-23 01:31:00,28.1,25.0,30.02,ENE,63,1.0,1.0,88,0.00,,,0.00,weatherlink.com 1.10,2014-02-23 06:31:00,
2014-02-23 01:46:00,27.7,25.0,30.02,ENE,63,0.0,1.0,90,0.00,,,0.00,weatherlink.com 1.10,2014-02-23 06:46:00,
2014-02-23 02:01:00,27.5,25.0,30.02,ENE,63,0.0,0.0,90,0.00,,,0.00,weatherlink.com 1.10,2014-02-23 07:01:00,
2014-02-23 02:16:00,27.1,25.0,30.02,NE,56,0.0,1.0,91,0.00,,,0.00,weatherlink.com 1.10,2014-02-23 07:16:00,
2014-02-23 02:31:00,27.7,26.0,30.02,SE,131,0.0,2.0,92,0.00,,,0.00,weatherlink.com 1.10,2014-02-23 07:31:00,
2014-02-23 02:46:00,28.2,26.0,30.03,NE,48,0.0,1.0,91,0.00,,,0.00,weatherlink.com 1.10,2014-02-23 07:46:00,
2014-02-23 03:01:00,28.8,27.0,30.03,NE,48,0.0,0.0,91,0.00,,,0.00,weatherlink.com 1.10,2014-02-23 08:01:00,
2014-02-23 03:16:00,28.4,26.0,30.03,NE,48,0.0,0.0,90,0.00,,,0.00,weatherlink.com 1.10,2014-02-23 08:16:00,
2014-02-23 03:31:00,27.9,26.0,30.02,NE,48,0.0,1.0,91,0.00,,,0.00,weatherlink.com 1.10,2014-02-23 08:31:00,
2014-02-23 03:46:00,27.8,26.0,30.02,NE,48,0.0,0.0,91,0.00,,,0.00,weatherlink.com 1.10,2014-02-23 08:46:00,
2014-02-23 04:01:00,27.4,25.0,30.02,NE,48,0.0,0.0,92,0.00,,,0.00,weatherlink.com 1.10,2014-02-23 09:01:00,
2014-02-23 04:16:00,27.4,25.0,30.02,NE,48,0.0,0.0,92,0.00,,,0.00,weatherlink.com 1.10,2014-02-23 09:16:00,
2014-02-23 04:31:00,27.3,25.0,30.02,NE,48,0.0,0.0,92,0.00,,,0.00,weatherlink.com 1.10,2014-02-23 09:31:00,
2014-02-23 04:46:00,27.1,25.0,30.02,NE,49,0.0,1.0,93,0.00,,,0.00,weatherlink.com 1.10,2014-02-23 09:46:00,
2014-02-23 05:01:00,27.5,26.0,30.03,NE,48,0.0,1.0,93,0.00,,,0.00,weatherlink.com 1.10,2014-02-23 10:01:00,
2014-02-23 05:16:00,27.4,26.0,30.03,NE,49,0.0,0.0,93,0.00,,,0.00,weatherlink.com 1.10,2014-02-23 10:16:00,
2014-02-23 05:31:00,27.6,26.0,30.04,NE,48,0.0,1.0,93,0.00,,,0.00,weatherlink.com 1.10,2014-02-23 10:31:00,
2014-02-23 05:46:00,28.1,26.0,30.04,NE,48,0.0,1.0,93,0.00,,,0.00,weatherlink.com 1.10,2014-02-23 10:46:00,
2014-02-23 06:01:00,28.3,27.0,30.04,NE,48,0.0,1.0,93,0.00,,,0.00,weatherlink.com 1.10,2014-02-23 11:01:00,
2014-02-23 06:16:00,28.1,26.0,30.03,NE,48,0.0,0.0,92,0.00,,,0.00,weatherlink.com 1.10,2014-02-23 11:16:00,
2014-02-23 06:31:00,28.1,26.0,30.01,NE,47,0.0,1.0,93,0.00,,,0.00,weatherlink.com 1.10,2014-02-23 11:31:00,
2014-02-23 06:46:00,28.2,27.0,30.02,NNE,25,0.0,1.0,93,0.00,,,0.00,weatherlink.com 1.10,2014-02-23 11:46:00,
2014-02-23 07:02:00,27.9,26.0,30.01,NNE,25,0.0,0.0,93,0.00,,,0.00,weatherlink.com 1.10,2014-02-23 12:02:00,
2014-02-23 07:17:00,28.2,27.0,30.01,NNE,25,0.0,1.0,93,0.00,,,0.00,weatherlink.com 1.10,2014-02-23 12:17:00,
2014-02-23 07:32:00,28.6,27.0,30.00,NW,309,0.0,1.0,93,0.00,,,0.00,weatherlink.com 1.10,2014-02-23 12:32:00,
2014-02-23 07:47:00,29.2,27.0,30.02,NNE,25,0.0,2.0,92,0.00,,,0.00,weatherlink.com 1.10,2014-02-23 12:47:00,
2014-02-23 08:02:00,29.9,28.0,30.03,NNE,25,0.0,0.0,92,0.00,,,0.00,weatherlink.com 1.10,2014-02-23 13:02:00,
2014-02-23 08:17:00,30.7,28.0,30.03,NNE,25,0.0,1.0,90,0.00,,,0.00,weatherlink.com 1.10,2014-02-23 13:17:00,
2014-02-23 08:32:00,32.9,30.0,30.04,NNE,25,0.0,1.0,88,0.00,,,0.00,weatherlink.com 1.10,2014-02-23 13:32:00,
2014-02-23 08:47:00,33.1,29.0,30.04,NNE,25,0.0,1.0,85,0.00,,,0.00,weatherlink.com 1.10,2014-02-23 13:47:00,
2014-02-23 09:02:00,33.7,29.0,30.04,WNW,291,0.0,1.0,84,0.00,,,0.00,weatherlink.com 1.10,2014-02-23 14:02:00,
2014-02-23 09:17:00,34.9,30.0,30.04,NW,324,0.0,0.0,81,0.00,,,0.00,weatherlink.com 1.10,2014-02-23 14:17:00,
2014-02-23 09:32:00,36.1,31.0,30.03,NW,322,0.0,-999.0,80,-99.99,,,0.00,weatherlink.com 1.10,2014-02-23 14:32:00,
2014-02-23 09:47:00,37.3,30.0,30.02,WSW,256,0.0,1.0,76,0.00,,,0.00,weatherlink.com 1.10,2014-02-23 14:47:00,
2014-02-23 10:02:00,38.9,31.0,30.02,NNW,341,1.0,2.0,73,0.00,,,0.00,weatherlink.com 1.10,2014-02-23 15:02:00,
2014-02-23 10:17:00,39.6,32.0,30.01,WNW,302,0.0,1.0,73,0.00,,,0.00,weatherlink.com 1.10,2014-02-23 15:17:00,
2014-02-23 10:32:00,41.4,32.0,30.01,NW,309,0.0,1.0,70,0.00,,,0.00,weatherlink.com 1.10,2014-02-23 15:32:00,
2014-02-23 10:47:00,41.7,32.0,30.00,WSW,256,1.0,1.0,69,0.00,,,0.00,weatherlink.com 1.10,2014-02-23 15:47:00,
2014-02-23 11:02:00,41.7,32.0,30.00,North,7,0.0,2.0,69,0.00,,,0.00,weatherlink.com 1.10,2014-02-23 16:02:00,
2014-02-23 11:17:00,42.5,32.0,30.00,West,272,1.0,3.0,67,0.00,,,0.00,weatherlink.com 1.10,2014-02-23 16:17:00,
2014-02-23 11:32:00,43.3,33.0,30.00,NNE,14,0.0,2.0,66,0.00,,,0.00,weatherlink.com 1.10,2014-02-23 16:32:00,
2014-02-23 11:47:00,43.1,31.0,29.99,WNW,290,2.0,6.0,63,0.00,,,0.00,weatherlink.com 1.10,2014-02-23 16:47:00,
2014-02-23 12:02:00,42.8,31.0,29.99,WNW,303,2.0,4.0,63,0.00,,,0.00,weatherlink.com 1.10,2014-02-23 17:02:00,
2014-02-23 12:17:00,43.3,31.0,29.98,WNW,296,3.0,4.0,63,0.00,,,0.00,weatherlink.com 1.10,2014-02-23 17:17:00,
2014-02-23 12:32:00,43.3,31.0,29.98,WNW,292,3.0,7.0,62,0.00,,,0.00,weatherlink.com 1.10,2014-02-23 17:32:00,
2014-02-23 12:47:00,43.2,31.0,29.97,NNW,337,2.0,4.0,62,0.00,,,0.00,weatherlink.com 1.10,2014-02-23 17:47:00,
2014-02-23 13:02:00,43.8,31.0,29.97,NW,314,0.0,9.0,62,0.00,,,0.00,weatherlink.com 1.10,2014-02-23 18:02:00,
2014-02-23 13:18:00,43.6,31.0,29.96,WNW,290,3.0,11.0,62,0.00,,,0.00,weatherlink.com 1.10,2014-02-23 18:18:00,
2014-02-23 13:33:00,43.8,32.0,29.96,West,259,11.0,11.0,63,0.00,,,0.00,weatherlink.com 1.10,2014-02-23 18:33:00,
2014-02-23 13:48:00,44.3,31.0,29.95,NW,312,2.0,7.0,61,0.00,,,0.00,weatherlink.com 1.10,2014-02-23 18:48:00,
2014-02-23 14:03:00,44.3,32.0,29.94,NNW,327,1.0,8.0,62,0.00,,,0.00,weatherlink.com 1.10,2014-02-23 19:03:00,
2014-02-23 14:18:00,44.7,31.0,29.94,NW,319,2.0,7.0,60,0.00,,,0.00,weatherlink.com 1.10,2014-02-23 19:18:00,
2014-02-23 14:33:00,45.1,31.0,29.93,NNW,339,5.0,6.0,59,0.00,,,0.00,weatherlink.com 1.10,2014-02-23 19:33:00,
2014-02-23 14:48:00,44.8,31.0,29.94,NNW,334,2.0,7.0,59,0.00,,,0.00,weatherlink.com 1.10,2014-02-23 19:48:00,
2014-02-23 15:03:00,44.1,30.0,29.94,NW,312,3.0,7.0,58,0.00,,,0.00,weatherlink.com 1.10,2014-02-23 20:03:00,
2014-02-23 15:18:00,43.8,30.0,29.94,North,356,3.0,7.0,59,0.00,,,0.00,weatherlink.com 1.10,2014-02-23 20:18:00,
2014-02-23 15:35:00,43.1,31.0,29.94,WNW,298,2.0,10.0,63,0.00,,,0.00,weatherlink.com 1.10,2014-02-23 20:35:00,
2014-02-23 15:48:00,42.1,32.0,29.95,NW,325,2.0,9.0,68,0.00,,,0.00,weatherlink.com 1.10,2014-02-23 20:48:00,
2014-02-23 16:03:00,41.3,34.0,29.96,West,267,1.0,6.0,74,0.00,,,0.00,weatherlink.com 1.10,2014-02-23 21:03:00,
2014-02-23 16:18:00,39.2,34.0,29.97,North,359,8.0,12.0,80,0.00,,,0.00,weatherlink.com 1.10,2014-02-23 21:18:00,
2014-02-23 16:33:00,37.0,34.0,29.98,NNW,344,4.0,13.0,88,0.01,,,0.01,weatherlink.com 1.10,2014-02-23 21:33:00,
2014-02-23 16:48:00,36.0,33.0,29.99,NNW,338,0.0,8.0,90,0.02,,,0.02,weatherlink.com 1.10,2014-02-23 21:48:00,
2014-02-23 17:03:00,35.4,33.0,29.99,North,349,1.0,3.0,91,0.02,,,0.02,weatherlink.com 1.10,2014-02-23 22:03:00,
2014-02-23 17:18:00,34.9,33.0,29.99,NNW,345,1.0,6.0,91,0.03,,,0.03,weatherlink.com 1.10,2014-02-23 22:18:00,
2014-02-23 17:33:00,34.7,32.0,29.99,WSW,240,7.0,8.0,91,0.02,,,0.03,weatherlink.com 1.10,2014-02-23 22:33:00,
2014-02-23 17:48:00,34.6,32.0,30.00,WSW,249,5.0,9.0,91,0.02,,,0.04,weatherlink.com 1.10,2014-02-23 22:48:00,
2014-02-23 18:03:00,34.4,33.0,30.00,WSW,257,1.0,4.0,93,0.01,,,0.04,weatherlink.com 1.10,2014-02-23 23:03:00,
2014-02-23 18:18:00,34.5,32.0,30.00,West,281,4.0,11.0,91,0.01,,,0.04,weatherlink.com 1.10,2014-02-23 23:18:00,
2014-02-23 18:33:00,35.4,31.0,30.00,WNW,297,4.0,11.0,83,0.01,,,0.04,weatherlink.com 1.10,2014-02-23 23:33:00,
2014-02-23 18:48:00,35.4,29.0,29.99,WNW,283,6.0,12.0,78,0.00,,,0.04,weatherlink.com 1.10,2014-02-23 23:48:00,
2014-02-23 19:03:00,35.2,30.0,30.00,WNW,283,4.0,7.0,80,0.00,,,0.04,weatherlink.com 1.10,2014-02-24 00:03:00,
2014-02-23 19:18:00,34.8,30.0,30.00,WSW,258,3.0,9.0,83,0.00,,,0.04,weatherlink.com 1.10,2014-02-24 00:18:00,
2014-02-23 19:33:00,34.3,31.0,30.00,West,268,4.0,7.0,86,0.00,,,0.04,weatherlink.com 1.10,2014-02-24 00:33:00,
2014-02-23 19:48:00,34.2,31.0,30.00,WSW,239,3.0,5.0,87,0.00,,,0.04,weatherlink.com 1.10,2014-02-24 00:48:00,
2014-02-23 20:03:00,34.3,31.0,29.99,WSW,257,2.0,7.0,87,0.00,,,0.04,weatherlink.com 1.10,2014-02-24 01:03:00,
2014-02-23 20:19:00,34.2,31.0,29.98,WNW,288,1.0,8.0,87,0.00,,,0.04,weatherlink.com 1.10,2014-02-24 01:19:00,
2014-02-23 20:33:00,34.1,31.0,29.98,WSW,243,4.0,5.0,87,0.00,,,0.04,weatherlink.com 1.10,2014-02-24 01:33:00,
2014-02-23 20:48:00,34.0,31.0,29.98,WNW,300,2.0,6.0,87,0.00,,,0.04,weatherlink.com 1.10,2014-02-24 01:48:00,
2014-02-23 21:03:00,33.8,31.0,29.98,WSW,244,1.0,8.0,88,0.00,,,0.04,weatherlink.com 1.10,2014-02-24 02:03:00,
2014-02-23 21:19:00,33.4,31.0,29.98,West,278,2.0,7.0,89,0.00,,,0.04,weatherlink.com 1.10,2014-02-24 02:19:00,
2014-02-23 21:33:00,33.3,31.0,29.99,WNW,292,2.0,8.0,90,0.00,,,0.04,weatherlink.com 1.10,2014-02-24 02:33:00,
2014-02-23 21:48:00,33.6,31.0,29.99,NW,304,2.0,7.0,89,0.00,,,0.04,weatherlink.com 1.10,2014-02-24 02:48:00,
2014-02-23 22:03:00,33.7,31.0,29.98,West,281,6.0,10.0,89,0.00,,,0.04,weatherlink.com 1.10,2014-02-24 03:03:00,
2014-02-23 22:18:00,34.0,31.0,29.98,WNW,284,6.0,12.0,89,0.00,,,0.04,weatherlink.com 1.10,2014-02-24 03:18:00,
2014-02-23 22:33:00,34.0,31.0,29.98,WNW,289,2.0,7.0,89,0.00,,,0.04,weatherlink.com 1.10,2014-02-24 03:33:00,
2014-02-23 22:48:00,34.1,31.0,29.98,NW,314,4.0,7.0,89,0.00,,,0.04,weatherlink.com 1.10,2014-02-24 03:48:00,
2014-02-23 23:03:00,34.1,31.0,29.98,WNW,294,2.0,11.0,88,0.00,,,0.04,weatherlink.com 1.10,2014-02-24 04:03:00,
2014-02-23 23:18:00,34.1,31.0,29.98,WNW,302,3.0,10.0,87,0.00,,,0.04,weatherlink.com 1.10,2014-02-24 04:18:00,
2014-02-23 23:33:00,33.7,28.0,29.99,WSW,250,3.0,10.0,81,0.00,,,0.04,weatherlink.com 1.10,2014-02-24 04:33:00,
2014-02-23 23:48:00,33.5,28.0,29.99,NW,326,2.0,11.0,81,0.00,,,0.04,weatherlink.com 1.10,2014-02-24 04:48:00,